• Join FlightAware (Why Join?)
  • Login
  • US Flag 
Gobble Gobble! 
05:06PM EST


 

Airport Tracker/Info


-or-


 

Live Flight TrackerFlight Track Log ✈ DAL1388 ✈ 08-May-2013 ✈ KATL - KOKC

Flight Track Log - Related Links

Times and Time Zones

All times are in EDT time to prevent confusion due to time zone crossing. See the DAL1388 flight status page for this flight to view local times or setup timezone preferences in your user account.

Time Position Orientation Groundspeed Altitude Reporting Facility
EDT Latitude Longitude Course Direction KTS MPH feet Rate Location/Type
05:17PM 33.6667 -84.5167 284° West 253 291 4,000  Level Atlanta TRACON
05:18PM 33.6833 -84.6000 284° West 259 298 7,700 3,180 Climbing Atlanta TRACON
05:19PM 33.6833 -84.6833 270° West 284 327 10,400 2,160 Climbing Atlanta TRACON
05:21PM 33.7261 -84.9456 281° West 371 427 14,700 2,340 Climbing Atlanta Center
05:22PM 33.7461 -85.0706 281° West 391 450 18,000 2,760 Climbing Atlanta Center
05:23PM 33.7639 -85.1958 280° West 391 450 20,300 2,220 Climbing Atlanta Center
05:24PM 33.7853 -85.3386 280° West 391 450 22,500 1,860 Climbing Atlanta Center
05:25PM 33.8089 -85.4714 282° West 397 457 24,100 1,500 Climbing Atlanta Center
05:27PM 33.8556 -85.7422 282° West 415 478 27,100 1,320 Climbing Atlanta Center
05:28PM 33.8744 -85.8803 279° West 420 483 28,100 1,320 Climbing Atlanta Center
05:29PM 33.8806 -86.0256 281° West 433 498 29,800 1,500 Climbing Atlanta Center
05:30PM 33.9036 -86.1486 283° West 433 498 31,100 1,080 Climbing Atlanta Center
05:31PM 33.9408 -86.2822 289° West 428 493 32,000 420 Climbing Atlanta Center
05:32PM 33.9800 -86.4211 289° West 428 493 32,000  Level Atlanta Center
05:33PM 34.0147 -86.5550 287° West 428 493 32,000  Level Atlanta Center
05:34PM 34.0536 -86.6914 289° West 428 493 32,000  Level Atlanta Center
05:36PM 34.1264 -86.9722 287° West 438 504 32,000  Level Memphis Center
05:37PM 34.1656 -87.1089 289° West 438 504 32,000  Level Memphis Center
05:38PM 34.2028 -87.2556 287° West 432 497 32,000  Level Memphis Center
05:39PM 34.2394 -87.3950 288° West 426 490 32,000  Level Memphis Center
05:40PM 34.2761 -87.5294 288° West 431 496 32,000  Level Memphis Center
05:41PM 34.3125 -87.6717 287° West 436 502 32,000  Level Memphis Center
05:42PM 34.3511 -87.8086 289° West 436 502 32,000  Level Memphis Center
05:43PM 34.3806 -87.9336 286° West 436 502 32,000  Level Memphis Center
05:44PM 34.4186 -88.0711 289° West 436 502 32,000  Level Memphis Center
05:45PM 34.4569 -88.2336 286° West 441 507 32,000  Level Memphis Center
05:46PM 34.4906 -88.3739 286° West 441 507 32,000  Level Memphis Center
05:47PM 34.5261 -88.5119 287° West 436 502 32,000  Level Memphis Center
05:48PM 34.5617 -88.6497 287° West 436 502 32,000  Level Memphis Center
05:49PM 34.5947 -88.7878 286° West 436 502 32,000  Level Memphis Center
05:50PM 34.6297 -88.9211 288° West 431 496 32,000  Level Memphis Center
05:51PM 34.6625 -89.0617 286° West 425 489 32,000  Level Memphis Center
05:52PM 34.6972 -89.2028 287° West 437 503 32,000  Level Memphis Center
05:53PM 34.7319 -89.3386 287° West 432 497 32,000  Level Memphis Center
05:54PM 34.7642 -89.4772 286° West 432 497 32,000  Level Memphis Center
05:55PM 34.7631 -89.6239 270° West 432 497 32,000  Level Memphis Center
05:56PM 34.7619 -89.7783 270° West 440 506 32,000  Level Memphis Center
05:57PM 34.7583 -89.9122 268° West 454 522 32,000  Level Memphis Center
05:58PM 34.7567 -90.0589 269° West 445 512 32,000  Level Memphis Center
05:59PM 34.7506 -90.2181 267° West 440 506 32,000  Level Memphis Center
06:00PM 34.7467 -90.3672 268° West 440 506 32,000  Level Memphis Center
06:01PM 34.7422 -90.5139 268° West 440 506 32,000  Level Memphis Center
06:02PM 34.7378 -90.6578 268° West 440 506 32,000  Level Memphis Center
06:03PM 34.7353 -90.8044 269° West 440 506 32,000  Level Memphis Center
06:04PM 34.7286 -90.9508 267° West 440 506 32,000  Level Memphis Center
06:05PM 34.7236 -91.0950 268° West 440 506 32,000  Level Memphis Center
06:06PM 34.7183 -91.2439 268° West 440 506 32,000  Level Memphis Center
06:07PM 34.7111 -91.3931 267° West 440 506 32,000  Level Memphis Center
06:08PM 34.7056 -91.5242 267° West 440 506 32,000  Level Memphis Center
06:09PM 34.6981 -91.6706 266° West 440 506 32,000  Level Memphis Center
06:10PM 34.6944 -91.8119 268° West 435 501 32,000  Level Memphis Center
06:11PM 34.6864 -91.9583 266° West 435 501 32,000  Level Memphis Center
06:12PM 34.6781 -92.1047 266° West 440 506 32,000  Level Memphis Center
06:13PM 34.6844 -92.2489 273° West 440 506 32,000  Level Memphis Center
06:14PM 34.7069 -92.3933 281° West 440 506 32,000  Level Memphis Center
06:15PM 34.7275 -92.5353 280° West 440 506 32,000  Level Memphis Center
06:16PM 34.7500 -92.6800 281° West 440 506 32,000  Level Memphis Center
06:17PM 34.7703 -92.8244 280° West 440 506 32,000  Level Memphis Center
06:18PM 34.7883 -92.9667 279° West 440 506 32,000  Level Memphis Center
06:19PM 34.8081 -93.1089 280° West 433 498 32,000  Level Memphis Center
06:20PM 34.8278 -93.2539 279° West 433 498 32,000  Level Memphis Center
06:21PM 34.8494 -93.3989 280° West 433 498 32,000  Level Memphis Center
06:22PM 34.8686 -93.5464 279° West 433 498 32,000  Level Memphis Center
06:23PM 34.8878 -93.6914 279° West 433 498 32,000  Level Memphis Center
06:24PM 34.9067 -93.8364 279° West 438 504 32,000  Level Memphis Center
06:25PM 34.9278 -93.9817 280° West 438 504 32,000 -540 Level Memphis Center
06:26PM 34.9442 -94.1242 278° West 438 504 31,000 -1,020 Descending Memphis Center
06:27PM 34.9625 -94.2744 279° West 438 504 30,000 -540 Descending Memphis Center
06:28PM 34.9831 -94.4200 280° West 438 504 30,000  Level Memphis Center
06:29PM 34.9931 -94.5117 278° West 452 520 30,000  Level Fort Worth Center
06:30PM 35.0111 -94.6581 279° West 467 537 30,000  Level Fort Worth Center
06:31PM 35.0283 -94.7867 279° West 455 524 30,000  Level Fort Worth Center
06:32PM 35.0481 -94.9333 279° West 448 516 30,000  Level Fort Worth Center
06:33PM 35.0675 -95.0822 279° West 441 507 30,000  Level Fort Worth Center
06:34PM 35.0869 -95.2264 279° West 446 513 30,000  Level Fort Worth Center
06:35PM 35.1081 -95.3731 280° West 446 513 30,000  Level Fort Worth Center
06:36PM 35.1272 -95.5200 279° West 446 513 30,000  Level Fort Worth Center
06:37PM 35.1439 -95.6642 278° West 446 513 30,000 -720 Level Fort Worth Center
06:38PM 35.1625 -95.8111 279° West 440 506 28,600 -1,500 Descending Fort Worth Center
06:39PM 35.1769 -95.9683 276° West 442 509 27,000 -1,800 Descending Fort Worth Center
06:40PM 35.1953 -96.1181 279° West 447 514 25,100 -1,680 Descending Fort Worth Center
06:41PM 35.2111 -96.2650 278° West 447 514 23,700 -1,380 Descending Fort Worth Center
06:42PM 35.2269 -96.4122 278° West 447 514 22,400 -1,800 Descending Fort Worth Center
06:43PM 35.2447 -96.5519 279° West 436 502 20,100 -2,460 Descending Fort Worth Center
06:43PM 35.2536 -96.6178 279° West 402 463 18,900 -2,340 Descending Fort Worth Center
06:44PM 35.2581 -96.6839 275° West 427 491 17,800 -2,340 Descending Fort Worth Center
06:45PM 35.2689 -96.7575 280° West 384 442 16,300 -2,640 Descending Fort Worth Center
06:45PM 35.2733 -96.8133 276° West 403 464 15,200 -2,940 Descending Fort Worth Center
06:46PM 35.2822 -96.8847 279° West 374 430 13,400 -2,700 Descending Fort Worth Center
06:46PM 35.2864 -96.9381 275° West 389 448 12,500 -1,680 Descending Fort Worth Center
06:47PM 35.2931 -97.0067 277° West 352 405 11,700 -1,440 Descending Fort Worth Center
06:47PM 35.2994 -97.0522 280° West 365 420 11,100 -1,440 Descending Fort Worth Center
06:48PM 35.3058 -97.1133 277° West 295 339 10,300 -1,440 Descending Fort Worth Center
06:48PM 35.3142 -97.1489 286° West 326 375 9,700 -1,680 Descending Fort Worth Center
06:49PM 35.3331 -97.2075 292° West 277 319 8,600 -1,740 Descending Fort Worth Center
06:49PM 35.3414 -97.2406 287° West 300 345 8,000 -1,680 Descending Fort Worth Center
06:50PM 35.3603 -97.2939 293° West 280 322 6,900 -1,920 Descending Fort Worth Center
06:50PM 35.3686 -97.3269 287° West 282 325 6,100 -1,920 Descending Fort Worth Center
06:51PM 35.3917 -97.3856 296° West 285 328 5,000 -1,440 Descending Fort Worth Center
06:51PM 35.4019 -97.4086 299° West 282 325 4,700 -1,680 Descending Fort Worth Center
06:52PM 35.4269 -97.4722 296° West 287 330 3,300 -1,620 Descending Fort Worth Center
06:52PM 35.4375 -97.4950 300° West 289 333 3,100 -600 Descending Fort Worth Center